^^
Saratoga-Weather Station Historical Data
Daily Summary for July 28, 2020 Units:  Both    English   Metric
Daily Weekly Monthly Yearly Custom
  High: Low: Average:
Temperature: 78.3 °F /  25.7 °C 49.6 °F /  9.8 °C 64.6 °F /  18.1 °C
Dew Point: 54 °F /  12.2 °C 45.1 °F /  7.3 °C 48.2 °F /  9 °C
Humidity: 87% 32% 59%
Wind Speed: 10.1mph /  16.3km/h - 1.4mph /  2.2km/h
Wind Gust: 12mph /  19.3km/h - -
Wind- - South
Pressure: 30.5 in /  1032.5 hPa 30.4 in /  1028.1 hPa -
Precipitation: 0 in /  0.0 mm    
Historical Graphs
 
 
Tabular Data for July 28, 2020
Time Temperature Dew Point Pressure Wind Wind Speed Wind Gust Humidity Rainfall Rate (Hourly) solar
00:03 57 °F /  13.9 °C 48 °F /  8.9 °C 30.5in /  1032.2hPa Calm     72% 0in /  0.0mm 0 W/m2
00:08 56.8 °F /  13.8 °C 48.2 °F /  9 °C 30.5in /  1032.2hPa Calm     73% 0in /  0.0mm 0 W/m2
00:13 56.7 °F /  13.7 °C 48 °F /  8.9 °C 30.5in /  1032.2hPa South 0.9mph /  1.4km/h 1mph /  1.6km/h 73% 0in /  0.0mm 0 W/m2
00:18 56.5 °F /  13.6 °C 48.4 °F /  9.1 °C 30.5in /  1032.2hPa Calm     74% 0in /  0.0mm 0 W/m2
00:23 56.3 °F /  13.5 °C 48.2 °F /  9 °C 30.5in /  1032.2hPa Calm     74% 0in /  0.0mm 0 W/m2
00:28 55.9 °F /  13.3 °C 47.8 °F /  8.8 °C 30.5in /  1032.2hPa Calm   1mph /  1.6km/h 74% 0in /  0.0mm 0 W/m2
00:33 55.8 °F /  13.2 °C 48 °F /  8.9 °C 30.5in /  1032.2hPa Calm   1mph /  1.6km/h 75% 0in /  0.0mm 0 W/m2
00:38 55.6 °F /  13.1 °C 47.8 °F /  8.8 °C 30.5in /  1032.5hPa Calm     75% 0in /  0.0mm 0 W/m2
00:43 55.4 °F /  13 °C 48 °F /  8.9 °C 30.5in /  1032.2hPa South 0.9mph /  1.4km/h 1mph /  1.6km/h 76% 0in /  0.0mm 0 W/m2
00:48 55.2 °F /  12.9 °C 47.8 °F /  8.8 °C 30.5in /  1032.2hPa Calm     76% 0in /  0.0mm 0 W/m2
00:53 55 °F /  12.8 °C 48 °F /  8.9 °C 30.5in /  1032.5hPa Calm   1mph /  1.6km/h 77% 0in /  0.0mm 0 W/m2
00:58 54.9 °F /  12.7 °C 47.8 °F /  8.8 °C 30.5in /  1032.2hPa Calm     77% 0in /  0.0mm 0 W/m2
01:03 54.7 °F /  12.6 °C 47.7 °F /  8.7 °C 30.5in /  1032.5hPa Calm   1mph /  1.6km/h 77% 0in /  0.0mm 0 W/m2
01:08 54.7 °F /  12.6 °C 48 °F /  8.9 °C 30.5in /  1032.5hPa Calm   2mph /  3.2km/h 78% 0in /  0.0mm 0 W/m2
01:13 54.3 °F /  12.4 °C 48 °F /  8.9 °C 30.5in /  1032.5hPa South 0.9mph /  1.4km/h 1mph /  1.6km/h 79% 0in /  0.0mm 0 W/m2
01:18 54.3 °F /  12.4 °C 48 °F /  8.9 °C 30.5in /  1032.5hPa Calm   2mph /  3.2km/h 79% 0in /  0.0mm 0 W/m2
01:23 54.1 °F /  12.3 °C 47.8 °F /  8.8 °C 30.5in /  1032.5hPa South 0.9mph /  1.4km/h 1mph /  1.6km/h 79% 0in /  0.0mm 0 W/m2
01:28 54.1 °F /  12.3 °C 47.8 °F /  8.8 °C 30.5in /  1032.5hPa South 0.9mph /  1.4km/h 2mph /  3.2km/h 79% 0in /  0.0mm 0 W/m2
01:33 54 °F /  12.2 °C 48 °F /  8.9 °C 30.5in /  1032.5hPa Calm     80% 0in /  0.0mm 0 W/m2
01:38 54 °F /  12.2 °C 48 °F /  8.9 °C 30.5in /  1032.5hPa Calm     80% 0in /  0.0mm 0 W/m2
01:43 53.8 °F /  12.1 °C 47.8 °F /  8.8 °C 30.5in /  1032.5hPa Calm     80% 0in /  0.0mm 0 W/m2
01:48 53.6 °F /  12 °C 47.7 °F /  8.7 °C 30.5in /  1032.5hPa South 0.9mph /  1.4km/h 2mph /  3.2km/h 80% 0in /  0.0mm 0 W/m2
01:53 53.4 °F /  11.9 °C 47.7 °F /  8.7 °C 30.5in /  1032.5hPa Calm     81% 0in /  0.0mm 0 W/m2
01:58 53.2 °F /  11.8 °C 47.5 °F /  8.6 °C 30.5in /  1032.5hPa Calm     81% 0in /  0.0mm 0 W/m2
02:03 53.2 °F /  11.8 °C 47.5 °F /  8.6 °C 30.5in /  1032.2hPa Calm     81% 0in /  0.0mm 0 W/m2
02:08 53.2 °F /  11.8 °C 47.5 °F /  8.6 °C 30.5in /  1032.2hPa Calm   1mph /  1.6km/h 81% 0in /  0.0mm 0 W/m2
02:13 53.1 °F /  11.7 °C 47.3 °F /  8.5 °C 30.5in /  1032.2hPa Calm     81% 0in /  0.0mm 0 W/m2
02:18 53.1 °F /  11.7 °C 47.3 °F /  8.5 °C 30.5in /  1032.2hPa Calm   2mph /  3.2km/h 81% 0in /  0.0mm 0 W/m2
02:23 53.2 °F /  11.8 °C 47.5 °F /  8.6 °C 30.5in /  1032.2hPa Calm     81% 0in /  0.0mm 0 W/m2
02:28 53.2 °F /  11.8 °C 47.5 °F /  8.6 °C 30.5in /  1032.2hPa Calm   2mph /  3.2km/h 81% 0in /  0.0mm 0 W/m2
02:33 53.1 °F /  11.7 °C 47.3 °F /  8.5 °C 30.5in /  1032.2hPa South 0.9mph /  1.4km/h 1mph /  1.6km/h 81% 0in /  0.0mm 0 W/m2
02:38 53.1 °F /  11.7 °C 47.3 °F /  8.5 °C 30.5in /  1032.2hPa South 0.9mph /  1.4km/h 1mph /  1.6km/h 81% 0in /  0.0mm 0 W/m2
02:43 53.1 °F /  11.7 °C 47.3 °F /  8.5 °C 30.5in /  1032.2hPa Calm   1mph /  1.6km/h 81% 0in /  0.0mm 0 W/m2
02:48 52.9 °F /  11.6 °C 47.3 °F /  8.5 °C 30.5in /  1032.2hPa Calm     81% 0in /  0.0mm 0 W/m2
02:53 52.9 °F /  11.6 °C 47.3 °F /  8.5 °C 30.5in /  1032.2hPa Calm     81% 0in /  0.0mm 0 W/m2
02:58 52.9 °F /  11.6 °C 47.3 °F /  8.5 °C 30.5in /  1032.2hPa Calm     81% 0in /  0.0mm 0 W/m2
03:03 52.7 °F /  11.5 °C 47.1 °F /  8.4 °C 30.5in /  1032.2hPa Calm   1mph /  1.6km/h 81% 0in /  0.0mm 0 W/m2
03:08 52.5 °F /  11.4 °C 46.9 °F /  8.3 °C 30.5in /  1032.2hPa Calm     81% 0in /  0.0mm 0 W/m2
03:13 52.5 °F /  11.4 °C 46.9 °F /  8.3 °C 30.5in /  1032.2hPa Calm     81% 0in /  0.0mm 0 W/m2
03:18 52.3 °F /  11.3 °C 46.9 °F /  8.3 °C 30.5in /  1032.2hPa Calm     82% 0in /  0.0mm 0 W/m2
03:23 52.2 °F /  11.2 °C 46.8 °F /  8.2 °C 30.5in /  1032.2hPa Calm     82% 0in /  0.0mm 0 W/m2
03:28 52 °F /  11.1 °C 46.6 °F /  8.1 °C 30.5in /  1031.8hPa Calm   1mph /  1.6km/h 82% 0in /  0.0mm 0 W/m2
03:33 51.8 °F /  11 °C 46.8 °F /  8.2 °C 30.5in /  1031.8hPa Calm   1mph /  1.6km/h 83% 0in /  0.0mm 0 W/m2
03:38 51.6 °F /  10.9 °C 46.6 °F /  8.1 °C 30.5in /  1031.8hPa Calm   1mph /  1.6km/h 83% 0in /  0.0mm 0 W/m2
03:43 51.6 °F /  10.9 °C 46.6 °F /  8.1 °C 30.5in /  1031.8hPa Calm     83% 0in /  0.0mm 0 W/m2
03:48 51.4 °F /  10.8 °C 46.8 °F /  8.2 °C 30.5in /  1031.8hPa Calm   1mph /  1.6km/h 84% 0in /  0.0mm 0 W/m2
03:53 51.4 °F /  10.8 °C 46.8 °F /  8.2 °C 30.5in /  1031.8hPa South 0.9mph /  1.4km/h 1mph /  1.6km/h 84% 0in /  0.0mm 0 W/m2
03:58 51.4 °F /  10.8 °C 46.8 °F /  8.2 °C 30.5in /  1031.8hPa Calm     84% 0in /  0.0mm 0 W/m2
04:03 51.3 °F /  10.7 °C 46.6 °F /  8.1 °C 30.5in /  1031.8hPa Calm     84% 0in /  0.0mm 0 W/m2
04:08 51.1 °F /  10.6 °C 46.4 °F /  8 °C 30.5in /  1031.8hPa South 0.9mph /  1.4km/h 1mph /  1.6km/h 84% 0in /  0.0mm 0 W/m2
04:13 51.1 °F /  10.6 °C 46.8 °F /  8.2 °C 30.5in /  1031.8hPa Calm     85% 0in /  0.0mm 0 W/m2
04:18 50.7 °F /  10.4 °C 46.4 °F /  8 °C 30.5in /  1031.8hPa South 1mph /  1.6km/h 1mph /  1.6km/h 85% 0in /  0.0mm 0 W/m2
04:23 50.7 °F /  10.4 °C 46.4 °F /  8 °C 30.5in /  1031.8hPa Calm   1mph /  1.6km/h 85% 0in /  0.0mm 0 W/m2
04:28 50.5 °F /  10.3 °C 46.2 °F /  7.9 °C 30.5in /  1031.8hPa Calm   1mph /  1.6km/h 85% 0in /  0.0mm 0 W/m2
04:33 50.5 °F /  10.3 °C 46.6 °F /  8.1 °C 30.5in /  1031.8hPa Calm     86% 0in /  0.0mm 0 W/m2
04:38 50.5 °F /  10.3 °C 46.6 °F /  8.1 °C 30.5in /  1031.8hPa Calm   1mph /  1.6km/h 86% 0in /  0.0mm 0 W/m2
04:43 50.5 °F /  10.3 °C 46.6 °F /  8.1 °C 30.5in /  1031.8hPa Calm     86% 0in /  0.0mm 0 W/m2
04:48 50.4 °F /  10.2 °C 46.4 °F /  8 °C 30.5in /  1031.8hPa Calm     86% 0in /  0.0mm 0 W/m2
04:53 50.4 °F /  10.2 °C 46.4 °F /  8 °C 30.5in /  1031.8hPa Calm     86% 0in /  0.0mm 0 W/m2
04:58 50.2 °F /  10.1 °C 46.2 °F /  7.9 °C 30.5in /  1031.8hPa Calm     86% 0in /  0.0mm 0 W/m2
05:03 50.2 °F /  10.1 °C 46.2 °F /  7.9 °C 30.5in /  1031.8hPa Calm     86% 0in /  0.0mm 0 W/m2
05:08 50 °F /  10 °C 46 °F /  7.8 °C 30.5in /  1031.8hPa Calm     86% 0in /  0.0mm 0 W/m2
05:13 50 °F /  10 °C 46 °F /  7.8 °C 30.5in /  1031.8hPa Calm     86% 0in /  0.0mm 0 W/m2
05:18 49.8 °F /  9.9 °C 45.9 °F /  7.7 °C 30.5in /  1031.8hPa Calm     86% 0in /  0.0mm 0 W/m2
05:23 49.8 °F /  9.9 °C 45.9 °F /  7.7 °C 30.5in /  1031.8hPa Calm     86% 0in /  0.0mm 0 W/m2
05:28 50 °F /  10 °C 46.2 °F /  7.9 °C 30.5in /  1031.8hPa Calm     87% 0in /  0.0mm 0 W/m2
05:33 49.8 °F /  9.9 °C 45.9 °F /  7.7 °C 30.5in /  1032.2hPa Calm     86% 0in /  0.0mm 0 W/m2
05:38 49.8 °F /  9.9 °C 46 °F /  7.8 °C 30.5in /  1031.8hPa Calm     87% 0in /  0.0mm 5 W/m2
05:43 49.8 °F /  9.9 °C 46 °F /  7.8 °C 30.5in /  1031.8hPa Calm     87% 0in /  0.0mm 5 W/m2
05:48 49.6 °F /  9.8 °C 45.9 °F /  7.7 °C 30.5in /  1032.2hPa Calm     87% 0in /  0.0mm 7 W/m2
05:53 49.6 °F /  9.8 °C 45.9 °F /  7.7 °C 30.5in /  1032.2hPa Calm     87% 0in /  0.0mm 11 W/m2
05:58 49.6 °F /  9.8 °C 45.9 °F /  7.7 °C 30.5in /  1032.2hPa Calm   1mph /  1.6km/h 87% 0in /  0.0mm 12 W/m2
06:03 49.6 °F /  9.8 °C 45.9 °F /  7.7 °C 30.5in /  1032.2hPa Calm     87% 0in /  0.0mm 14 W/m2
06:08 49.6 °F /  9.8 °C 45.9 °F /  7.7 °C 30.5in /  1032.2hPa Calm     87% 0in /  0.0mm 18 W/m2
06:13 49.6 °F /  9.8 °C 45.9 °F /  7.7 °C 30.5in /  1032.2hPa Calm     87% 0in /  0.0mm 19 W/m2
06:18 49.6 °F /  9.8 °C 45.9 °F /  7.7 °C 30.5in /  1032.2hPa Calm     87% 0in /  0.0mm 23 W/m2
06:23 49.8 °F /  9.9 °C 46 °F /  7.8 °C 30.5in /  1032.2hPa Calm     87% 0in /  0.0mm 26 W/m2
06:28 49.8 °F /  9.9 °C 46 °F /  7.8 °C 30.5in /  1032.2hPa Calm     87% 0in /  0.0mm 28 W/m2
06:33 50.2 °F /  10.1 °C 46.4 °F /  8 °C 30.5in /  1032.2hPa Calm     87% 0in /  0.0mm 30 W/m2
06:38 50.4 °F /  10.2 °C 46.4 °F /  8 °C 30.5in /  1032.2hPa Calm     86% 0in /  0.0mm 32 W/m2
06:43 50.5 °F /  10.3 °C 46.8 °F /  8.2 °C 30.5in /  1032.2hPa Calm     87% 0in /  0.0mm 33 W/m2
06:48 50.5 °F /  10.3 °C 46.6 °F /  8.1 °C 30.5in /  1032.2hPa Calm   1mph /  1.6km/h 86% 0in /  0.0mm 33 W/m2
06:53 50.9 °F /  10.5 °C 46.9 °F /  8.3 °C 30.5in /  1032.5hPa Calm     86% 0in /  0.0mm 35 W/m2
06:58 51.3 °F /  10.7 °C 47.3 °F /  8.5 °C 30.5in /  1032.2hPa Calm     86% 0in /  0.0mm 35 W/m2
07:03 51.4 °F /  10.8 °C 47.5 °F /  8.6 °C 30.5in /  1032.5hPa South 0.9mph /  1.4km/h 2mph /  3.2km/h 86% 0in /  0.0mm 37 W/m2
07:08 52 °F /  11.1 °C 47.3 °F /  8.5 °C 30.5in /  1032.2hPa Calm     84% 0in /  0.0mm 37 W/m2
07:14 52.3 °F /  11.3 °C 46.9 °F /  8.3 °C 30.5in /  1032.2hPa Calm     82% 0in /  0.0mm 37 W/m2
07:19 52.9 °F /  11.6 °C 47.3 °F /  8.5 °C 30.5in /  1032.2hPa Calm     81% 0in /  0.0mm 39 W/m2
07:24 53.2 °F /  11.8 °C 47.3 °F /  8.5 °C 30.5in /  1032.5hPa Calm     80% 0in /  0.0mm 40 W/m2
07:29 53.4 °F /  11.9 °C 47.1 °F /  8.4 °C 30.5in /  1032.5hPa Calm     79% 0in /  0.0mm 40 W/m2
07:34 54 °F /  12.2 °C 47.7 °F /  8.7 °C 30.5in /  1032.2hPa Calm     79% 0in /  0.0mm 40 W/m2
07:39 54.3 °F /  12.4 °C 47.7 °F /  8.7 °C 30.5in /  1032.5hPa Calm   2mph /  3.2km/h 78% 0in /  0.0mm 162 W/m2
07:44 54.9 °F /  12.7 °C 47.8 °F /  8.8 °C 30.5in /  1032.5hPa Calm     77% 0in /  0.0mm 172 W/m2
07:49 55.6 °F /  13.1 °C 48.6 °F /  9.2 °C 30.5in /  1032.5hPa Calm     77% 0in /  0.0mm 239 W/m2
07:55 56.5 °F /  13.6 °C 48.7 °F /  9.3 °C 30.5in /  1032.5hPa NE 0.9mph /  1.4km/h 2mph /  3.2km/h 75% 0in /  0.0mm 253 W/m2
08:00 57.6 °F /  14.2 °C 48.9 °F /  9.4 °C 30.5in /  1032.5hPa Calm   3mph /  4.8km/h 73% 0in /  0.0mm 269 W/m2
08:05 58.5 °F /  14.7 °C 48.7 °F /  9.3 °C 30.5in /  1032.5hPa ENE 2mph /  3.2km/h 4mph /  6.4km/h 70% 0in /  0.0mm 279 W/m2
08:10 59.2 °F /  15.1 °C 49.1 °F /  9.5 °C 30.5in /  1032.5hPa Calm   1mph /  1.6km/h 69% 0in /  0.0mm 288 W/m2
08:15 59.5 °F /  15.3 °C 48.9 °F /  9.4 °C 30.5in /  1032.5hPa Calm   4mph /  6.4km/h 68% 0in /  0.0mm 309 W/m2
08:20 59.7 °F /  15.4 °C 49.1 °F /  9.5 °C 30.5in /  1032.5hPa ENE 2mph /  3.2km/h 2mph /  3.2km/h 68% 0in /  0.0mm 323 W/m2
08:25 60.1 °F /  15.6 °C 49.1 °F /  9.5 °C 30.5in /  1032.5hPa NE 0.9mph /  1.4km/h 4mph /  6.4km/h 67% 0in /  0.0mm 341 W/m2
08:30 60.8 °F /  16 °C 49.8 °F /  9.9 °C 30.5in /  1032.5hPa Calm   1mph /  1.6km/h 67% 0in /  0.0mm 353 W/m2
08:35 61.3 °F /  16.3 °C 49.5 °F /  9.7 °C 30.5in /  1032.5hPa ENE 0.9mph /  1.4km/h 4mph /  6.4km/h 65% 0in /  0.0mm 366 W/m2
08:40 61.5 °F /  16.4 °C 48.7 °F /  9.3 °C 30.5in /  1032.5hPa Calm   2mph /  3.2km/h 63% 0in /  0.0mm 381 W/m2
08:45 61.5 °F /  16.4 °C 49.3 °F /  9.6 °C 30.5in /  1032.5hPa Calm   2mph /  3.2km/h 64% 0in /  0.0mm 396 W/m2
08:50 61.9 °F /  16.6 °C 49.1 °F /  9.5 °C 30.5in /  1032.5hPa ESE 2mph /  3.2km/h 3mph /  4.8km/h 63% 0in /  0.0mm 408 W/m2
08:55 61.9 °F /  16.6 °C 48.2 °F /  9 °C 30.5in /  1032.5hPa North 2mph /  3.2km/h 3mph /  4.8km/h 61% 0in /  0.0mm 422 W/m2
09:00 62.1 °F /  16.7 °C 48.4 °F /  9.1 °C 30.5in /  1032.5hPa SE 0.9mph /  1.4km/h 2mph /  3.2km/h 61% 0in /  0.0mm 434 W/m2
09:05 62.4 °F /  16.9 °C 48.7 °F /  9.3 °C 30.5in /  1032.5hPa SE 2mph /  3.2km/h 7mph /  11.3km/h 61% 0in /  0.0mm 446 W/m2
09:10 62.8 °F /  17.1 °C 49.1 °F /  9.5 °C 30.5in /  1032.5hPa East 0.9mph /  1.4km/h 2mph /  3.2km/h 61% 0in /  0.0mm 459 W/m2
09:15 63.1 °F /  17.3 °C 49.1 °F /  9.5 °C 30.5in /  1032.5hPa ESE 2mph /  3.2km/h 4mph /  6.4km/h 60% 0in /  0.0mm 475 W/m2
09:20 63.3 °F /  17.4 °C 49.3 °F /  9.6 °C 30.5in /  1032.5hPa East 0.9mph /  1.4km/h 3mph /  4.8km/h 60% 0in /  0.0mm 487 W/m2
09:25 63.7 °F /  17.6 °C 48.6 °F /  9.2 °C 30.5in /  1032.5hPa ESE 4mph /  6.4km/h 4mph /  6.4km/h 58% 0in /  0.0mm 501 W/m2
09:30 64 °F /  17.8 °C 48.9 °F /  9.4 °C 30.5in /  1032.5hPa Calm   2mph /  3.2km/h 58% 0in /  0.0mm 513 W/m2
09:35 64.6 °F /  18.1 °C 48 °F /  8.9 °C 30.5in /  1032.5hPa Calm   4mph /  6.4km/h 55% 0in /  0.0mm 526 W/m2
09:40 64.9 °F /  18.3 °C 48.4 °F /  9.1 °C 30.5in /  1032.5hPa NE 0.9mph /  1.4km/h 2mph /  3.2km/h 55% 0in /  0.0mm 538 W/m2
09:45 65.1 °F /  18.4 °C 48 °F /  8.9 °C 30.5in /  1032.5hPa ENE 2.9mph /  4.7km/h 5mph /  8km/h 54% 0in /  0.0mm 554 W/m2
09:50 65.3 °F /  18.5 °C 48.2 °F /  9 °C 30.5in /  1032.5hPa NNW 2mph /  3.2km/h 3mph /  4.8km/h 54% 0in /  0.0mm 563 W/m2
09:55 65.7 °F /  18.7 °C 48 °F /  8.9 °C 30.5in /  1032.5hPa East 2.9mph /  4.7km/h 3mph /  4.8km/h 53% 0in /  0.0mm 527 W/m2
10:00 65.5 °F /  18.6 °C 48.4 °F /  9.1 °C 30.5in /  1032.5hPa SE 0.9mph /  1.4km/h 6mph /  9.7km/h 54% 0in /  0.0mm 62 W/m2
10:05 65.8 °F /  18.8 °C 48.7 °F /  9.3 °C 30.5in /  1032.5hPa ENE 6mph /  9.7km/h 8mph /  12.9km/h 54% 0in /  0.0mm 134 W/m2
10:10 65.8 °F /  18.8 °C 49.3 °F /  9.6 °C 30.5in /  1032.5hPa Calm   3mph /  4.8km/h 55% 0in /  0.0mm 610 W/m2
10:15 66.4 °F /  19.1 °C 48.2 °F /  9 °C 30.5in /  1032.5hPa ENE 2.9mph /  4.7km/h 8mph /  12.9km/h 52% 0in /  0.0mm 622 W/m2
10:20 66.4 °F /  19.1 °C 47.7 °F /  8.7 °C 30.5in /  1032.5hPa ENE 4mph /  6.4km/h 4mph /  6.4km/h 51% 0in /  0.0mm 633 W/m2
10:25 66.4 °F /  19.1 °C 48.2 °F /  9 °C 30.5in /  1032.5hPa NNE 4mph /  6.4km/h 7mph /  11.3km/h 52% 0in /  0.0mm 645 W/m2
10:30 66.9 °F /  19.4 °C 49.3 °F /  9.6 °C 30.5in /  1032.5hPa ESE 0.9mph /  1.4km/h 7mph /  11.3km/h 53% 0in /  0.0mm 663 W/m2
10:35 67.5 °F /  19.7 °C 48.2 °F /  9 °C 30.5in /  1032.5hPa East 2.9mph /  4.7km/h 6mph /  9.7km/h 50% 0in /  0.0mm 663 W/m2
10:40 67.5 °F /  19.7 °C 49.3 °F /  9.6 °C 30.5in /  1032.5hPa ESE 2mph /  3.2km/h 3mph /  4.8km/h 52% 0in /  0.0mm 675 W/m2
10:45 67.5 °F /  19.7 °C 48.2 °F /  9 °C 30.5in /  1032.2hPa ENE 2.9mph /  4.7km/h 7mph /  11.3km/h 50% 0in /  0.0mm 693 W/m2
10:50 67.8 °F /  19.9 °C 48 °F /  8.9 °C 30.5in /  1032.2hPa ESE 2.9mph /  4.7km/h 9mph /  14.5km/h 49% 0in /  0.0mm 707 W/m2
10:55 67.8 °F /  19.9 °C 49.1 °F /  9.5 °C 30.5in /  1032.2hPa NNW 2mph /  3.2km/h 3mph /  4.8km/h 51% 0in /  0.0mm 714 W/m2
11:00 68.2 °F /  20.1 °C 48.9 °F /  9.4 °C 30.5in /  1032.2hPa North 0.9mph /  1.4km/h 11mph /  17.7km/h 50% 0in /  0.0mm 722 W/m2
11:05 68 °F /  20 °C 49.6 °F /  9.8 °C 30.5in /  1032.2hPa NE 2.9mph /  4.7km/h 5mph /  8km/h 52% 0in /  0.0mm 729 W/m2
11:10 68.4 °F /  20.2 °C 48.4 °F /  9.1 °C 30.5in /  1032.2hPa NE 4.9mph /  7.9km/h 11mph /  17.7km/h 49% 0in /  0.0mm 747 W/m2
11:15 68.4 °F /  20.2 °C 47.8 °F /  8.8 °C 30.5in /  1032.2hPa NNW 4mph /  6.4km/h 7mph /  11.3km/h 48% 0in /  0.0mm 754 W/m2
11:20 68.4 °F /  20.2 °C 46.8 °F /  8.2 °C 30.5in /  1032.2hPa ENE 4mph /  6.4km/h 10mph /  16.1km/h 46% 0in /  0.0mm 765 W/m2
11:25 68.4 °F /  20.2 °C 48.4 °F /  9.1 °C 30.5in /  1032.2hPa NNE 0.9mph /  1.4km/h 3mph /  4.8km/h 49% 0in /  0.0mm 758 W/m2
11:30 68.5 °F /  20.3 °C 48 °F /  8.9 °C 30.5in /  1031.8hPa ESE 0.9mph /  1.4km/h 10mph /  16.1km/h 48% 0in /  0.0mm 777 W/m2
11:35 69.3 °F /  20.7 °C 48.7 °F /  9.3 °C 30.5in /  1031.8hPa South 2.9mph /  4.7km/h 6mph /  9.7km/h 48% 0in /  0.0mm 786 W/m2
11:40 69.6 °F /  20.9 °C 48.6 °F /  9.2 °C 30.5in /  1031.8hPa ENE 0.9mph /  1.4km/h 5mph /  8km/h 47% 0in /  0.0mm 796 W/m2
11:45 69.8 °F /  21 °C 49.3 °F /  9.6 °C 30.5in /  1031.8hPa East 4mph /  6.4km/h 7mph /  11.3km/h 48% 0in /  0.0mm 802 W/m2
11:50 70.2 °F /  21.2 °C 48.4 °F /  9.1 °C 30.5in /  1031.8hPa ENE 6.9mph /  11.1km/h 8mph /  12.9km/h 46% 0in /  0.0mm 807 W/m2
11:55 69.6 °F /  20.9 °C 46.8 °F /  8.2 °C 30.5in /  1031.8hPa Calm   4mph /  6.4km/h 44% 0in /  0.0mm 812 W/m2
12:00 70 °F /  21.1 °C 48.2 °F /  9 °C 30.5in /  1031.8hPa SSW 0.9mph /  1.4km/h 7mph /  11.3km/h 46% 0in /  0.0mm 819 W/m2
12:05 70.3 °F /  21.3 °C 48.6 °F /  9.2 °C 30.5in /  1031.8hPa ENE 4.9mph /  7.9km/h 5mph /  8km/h 46% 0in /  0.0mm 833 W/m2
12:10 70.9 °F /  21.6 °C 48.6 °F /  9.2 °C 30.5in /  1031.8hPa NW 2.9mph /  4.7km/h 8mph /  12.9km/h 45% 0in /  0.0mm 842 W/m2
12:15 70.5 °F /  21.4 °C 46.9 °F /  8.3 °C 30.5in /  1031.8hPa ENE 8.1mph /  13km/h 8mph /  12.9km/h 43% 0in /  0.0mm 847 W/m2
12:20 70.5 °F /  21.4 °C 47.5 °F /  8.6 °C 30.5in /  1031.5hPa ENE 2mph /  3.2km/h 4mph /  6.4km/h 44% 0in /  0.0mm 849 W/m2
12:25 70.5 °F /  21.4 °C 47.5 °F /  8.6 °C 30.5in /  1031.5hPa NNE 4.9mph /  7.9km/h 8mph /  12.9km/h 44% 0in /  0.0mm 858 W/m2
12:30 70.5 °F /  21.4 °C 47.5 °F /  8.6 °C 30.5in /  1031.8hPa SE 4mph /  6.4km/h 6mph /  9.7km/h 44% 0in /  0.0mm 865 W/m2
12:35 71.1 °F /  21.7 °C 48 °F /  8.9 °C 30.5in /  1031.5hPa NNW 2mph /  3.2km/h 8mph /  12.9km/h 44% 0in /  0.0mm 631 W/m2
12:40 70.5 °F /  21.4 °C 47.5 °F /  8.6 °C 30.5in /  1031.5hPa NNE 4mph /  6.4km/h 5mph /  8km/h 44% 0in /  0.0mm 740 W/m2
12:45 70.7 °F /  21.5 °C 47.7 °F /  8.7 °C 30.5in /  1031.5hPa NE 2.9mph /  4.7km/h 9mph /  14.5km/h 44% 0in /  0.0mm 860 W/m2
12:50 71.1 °F /  21.7 °C 48.6 °F /  9.2 °C 30.5in /  1031.5hPa NNW 4mph /  6.4km/h 5mph /  8km/h 45% 0in /  0.0mm 870 W/m2
12:55 71.1 °F /  21.7 °C 47.5 °F /  8.6 °C 30.5in /  1031.5hPa ESE 2.9mph /  4.7km/h 8mph /  12.9km/h 43% 0in /  0.0mm 872 W/m2
13:00 70.9 °F /  21.6 °C 48.6 °F /  9.2 °C 30.5in /  1031.5hPa WSW 0.9mph /  1.4km/h 8mph /  12.9km/h 45% 0in /  0.0mm 874 W/m2
13:05 71.1 °F /  21.7 °C 47.5 °F /  8.6 °C 30.5in /  1031.5hPa ENE 2mph /  3.2km/h 9mph /  14.5km/h 43% 0in /  0.0mm 877 W/m2
13:10 70.9 °F /  21.6 °C 48.6 °F /  9.2 °C 30.5in /  1031.5hPa East 2mph /  3.2km/h 5mph /  8km/h 45% 0in /  0.0mm 877 W/m2
13:15 71.2 °F /  21.8 °C 48.7 °F /  9.3 °C 30.5in /  1031.5hPa ENE 2.9mph /  4.7km/h 8mph /  12.9km/h 45% 0in /  0.0mm 881 W/m2
13:20 71.2 °F /  21.8 °C 48.2 °F /  9 °C 30.5in /  1031.2hPa East 4mph /  6.4km/h 9mph /  14.5km/h 44% 0in /  0.0mm 881 W/m2
13:25 71.2 °F /  21.8 °C 47.7 °F /  8.7 °C 30.5in /  1031.2hPa NW 4mph /  6.4km/h 8mph /  12.9km/h 43% 0in /  0.0mm 882 W/m2
13:30 71.4 °F /  21.9 °C 48.4 °F /  9.1 °C 30.5in /  1031.2hPa NW 2mph /  3.2km/h 9mph /  14.5km/h 44% 0in /  0.0mm 877 W/m2
13:35 71.4 °F /  21.9 °C 47.1 °F /  8.4 °C 30.5in /  1031.2hPa SSE 2mph /  3.2km/h 5mph /  8km/h 42% 0in /  0.0mm 884 W/m2
13:40 72 °F /  22.2 °C 48.2 °F /  9 °C 30.5in /  1031.2hPa SE 2mph /  3.2km/h 2mph /  3.2km/h 43% 0in /  0.0mm 884 W/m2
13:45 72 °F /  22.2 °C 48.9 °F /  9.4 °C 30.5in /  1031.2hPa ENE 4mph /  6.4km/h 10mph /  16.1km/h 44% 0in /  0.0mm 882 W/m2
13:50 72 °F /  22.2 °C 48.9 °F /  9.4 °C 30.5in /  1031.2hPa ESE 6mph /  9.7km/h 10mph /  16.1km/h 44% 0in /  0.0mm 881 W/m2
13:55 72 °F /  22.2 °C 48.2 °F /  9 °C 30.5in /  1031.2hPa WNW 0.9mph /  1.4km/h 2mph /  3.2km/h 43% 0in /  0.0mm 879 W/m2
14:00 72 °F /  22.2 °C 49.5 °F /  9.7 °C 30.5in /  1031.2hPa SE 4.9mph /  7.9km/h 10mph /  16.1km/h 45% 0in /  0.0mm 882 W/m2
14:05 72.1 °F /  22.3 °C 49.6 °F /  9.8 °C 30.5in /  1031.2hPa SE 4.9mph /  7.9km/h 7mph /  11.3km/h 45% 0in /  0.0mm 877 W/m2
14:10 72.7 °F /  22.6 °C 50.2 °F /  10.1 °C 30.4in /  1030.8hPa West 0.9mph /  1.4km/h 9mph /  14.5km/h 45% 0in /  0.0mm 874 W/m2
14:16 73 °F /  22.8 °C 49.8 °F /  9.9 °C 30.4in /  1030.8hPa NNE 0.9mph /  1.4km/h 3mph /  4.8km/h 44% 0in /  0.0mm 870 W/m2
14:21 73 °F /  22.8 °C 48 °F /  8.9 °C 30.4in /  1030.8hPa SSW 0.9mph /  1.4km/h 3mph /  4.8km/h 41% 0in /  0.0mm 867 W/m2
14:26 73.2 °F /  22.9 °C 48 °F /  8.9 °C 30.4in /  1030.8hPa SW 2mph /  3.2km/h 3mph /  4.8km/h 41% 0in /  0.0mm 867 W/m2
14:31 73.2 °F /  22.9 °C 48.7 °F /  9.3 °C 30.4in /  1030.8hPa North 2mph /  3.2km/h 6mph /  9.7km/h 42% 0in /  0.0mm 865 W/m2
14:36 73.4 °F /  23 °C 48.2 °F /  9 °C 30.4in /  1030.8hPa NNW 0.9mph /  1.4km/h 6mph /  9.7km/h 41% 0in /  0.0mm 856 W/m2
14:41 73.4 °F /  23 °C 48.9 °F /  9.4 °C 30.4in /  1030.8hPa ENE 4.9mph /  7.9km/h 7mph /  11.3km/h 42% 0in /  0.0mm 853 W/m2
14:46 73.8 °F /  23.2 °C 49.8 °F /  9.9 °C 30.4in /  1030.5hPa NW 2mph /  3.2km/h 6mph /  9.7km/h 43% 0in /  0.0mm 853 W/m2
14:51 73.9 °F /  23.3 °C 48.7 °F /  9.3 °C 30.4in /  1030.5hPa Calm   4mph /  6.4km/h 41% 0in /  0.0mm 837 W/m2
14:56 73.8 °F /  23.2 °C 49.8 °F /  9.9 °C 30.4in /  1030.5hPa East 2mph /  3.2km/h 4mph /  6.4km/h 43% 0in /  0.0mm 840 W/m2
15:01 73.8 °F /  23.2 °C 49.8 °F /  9.9 °C 30.4in /  1030.5hPa ENE 2mph /  3.2km/h 7mph /  11.3km/h 43% 0in /  0.0mm 837 W/m2
15:06 74.5 °F /  23.6 °C 50.5 °F /  10.3 °C 30.4in /  1030.5hPa NE 2mph /  3.2km/h 5mph /  8km/h 43% 0in /  0.0mm 830 W/m2
15:11 74.5 °F /  23.6 °C 48.6 °F /  9.2 °C 30.4in /  1030.5hPa SSW 2mph /  3.2km/h 4mph /  6.4km/h 40% 0in /  0.0mm 833 W/m2
15:16 74.7 °F /  23.7 °C 50.7 °F /  10.4 °C 30.4in /  1030.5hPa Calm   3mph /  4.8km/h 43% 0in /  0.0mm 823 W/m2
15:21 74.7 °F /  23.7 °C 49.5 °F /  9.7 °C 30.4in /  1030.1hPa NNE 0.9mph /  1.4km/h 2mph /  3.2km/h 41% 0in /  0.0mm 802 W/m2
15:26 74.7 °F /  23.7 °C 48.7 °F /  9.3 °C 30.4in /  1030.1hPa NE 0.9mph /  1.4km/h 5mph /  8km/h 40% 0in /  0.0mm 802 W/m2
15:31 74.7 °F /  23.7 °C 50 °F /  10 °C 30.4in /  1030.1hPa ESE 0.9mph /  1.4km/h 2mph /  3.2km/h 42% 0in /  0.0mm 793 W/m2
15:36 74.8 °F /  23.8 °C 49.6 °F /  9.8 °C 30.4in /  1030.1hPa ENE 4mph /  6.4km/h 7mph /  11.3km/h 41% 0in /  0.0mm 791 W/m2
15:41 75 °F /  23.9 °C 48.4 °F /  9.1 °C 30.4in /  1030.1hPa ENE 0.9mph /  1.4km/h 9mph /  14.5km/h 39% 0in /  0.0mm 779 W/m2
15:46 75 °F /  23.9 °C 48.4 °F /  9.1 °C 30.4in /  1030.1hPa NNE 4mph /  6.4km/h 7mph /  11.3km/h 39% 0in /  0.0mm 775 W/m2
15:51 75 °F /  23.9 °C 47.7 °F /  8.7 °C 30.4in /  1030.1hPa NNW 4mph /  6.4km/h 7mph /  11.3km/h 38% 0in /  0.0mm 758 W/m2
15:56 74.7 °F /  23.7 °C 48 °F /  8.9 °C 30.4in /  1030.1hPa West 2mph /  3.2km/h 4mph /  6.4km/h 39% 0in /  0.0mm 765 W/m2
16:01 74.8 °F /  23.8 °C 46.8 °F /  8.2 °C 30.4in /  1029.8hPa WNW 10.1mph /  16.3km/h 11mph /  17.7km/h 37% 0in /  0.0mm 747 W/m2
16:06 75 °F /  23.9 °C 46.2 °F /  7.9 °C 30.4in /  1030.1hPa North 2mph /  3.2km/h 4mph /  6.4km/h 36% 0in /  0.0mm 747 W/m2
16:11 75.2 °F /  24 °C 46.4 °F /  8 °C 30.4in /  1029.8hPa East 2mph /  3.2km/h 9mph /  14.5km/h 36% 0in /  0.0mm 740 W/m2
16:16 75.9 °F /  24.4 °C 46.2 °F /  7.9 °C 30.4in /  1029.8hPa WNW 4mph /  6.4km/h 6mph /  9.7km/h 35% 0in /  0.0mm 728 W/m2
16:21 75.7 °F /  24.3 °C 46.9 °F /  8.3 °C 30.4in /  1029.8hPa NNW 4.9mph /  7.9km/h 5mph /  8km/h 36% 0in /  0.0mm 717 W/m2
16:26 75.7 °F /  24.3 °C 46.2 °F /  7.9 °C 30.4in /  1029.8hPa West 4mph /  6.4km/h 12mph /  19.3km/h 35% 0in /  0.0mm 710 W/m2
16:31 75.7 °F /  24.3 °C 46.2 °F /  7.9 °C 30.4in /  1029.8hPa WSW 2mph /  3.2km/h 2mph /  3.2km/h 35% 0in /  0.0mm 694 W/m2
16:36 75.9 °F /  24.4 °C 46.2 °F /  7.9 °C 30.4in /  1029.5hPa NNW 2mph /  3.2km/h 12mph /  19.3km/h 35% 0in /  0.0mm 687 W/m2
16:41 76.5 °F /  24.7 °C 46 °F /  7.8 °C 30.4in /  1029.8hPa ENE 4mph /  6.4km/h 4mph /  6.4km/h 34% 0in /  0.0mm 675 W/m2
16:46 76.6 °F /  24.8 °C 46.2 °F /  7.9 °C 30.4in /  1029.5hPa East 2.9mph /  4.7km/h 9mph /  14.5km/h 34% 0in /  0.0mm 668 W/m2
16:52 76.5 °F /  24.7 °C 46 °F /  7.8 °C 30.4in /  1029.5hPa West 0.9mph /  1.4km/h 4mph /  6.4km/h 34% 0in /  0.0mm 656 W/m2
16:57 76.5 °F /  24.7 °C 47.5 °F /  8.6 °C 30.4in /  1029.5hPa ESE 2.9mph /  4.7km/h 4mph /  6.4km/h 36% 0in /  0.0mm 642 W/m2
17:02 76.5 °F /  24.7 °C 45.1 °F /  7.3 °C 30.4in /  1029.5hPa NW 0.9mph /  1.4km/h 2mph /  3.2km/h 33% 0in /  0.0mm 631 W/m2
17:07 76.5 °F /  24.7 °C 46.8 °F /  8.2 °C 30.4in /  1029.5hPa ENE 0.9mph /  1.4km/h 2mph /  3.2km/h 35% 0in /  0.0mm 621 W/m2
17:12 76.6 °F /  24.8 °C 46.2 °F /  7.9 °C 30.4in /  1029.1hPa NNW 2mph /  3.2km/h 2mph /  3.2km/h 34% 0in /  0.0mm 606 W/m2
17:17 77 °F /  25 °C 46.4 °F /  8 °C 30.4in /  1029.1hPa NW 2.9mph /  4.7km/h 7mph /  11.3km/h 34% 0in /  0.0mm 601 W/m2
17:22 77.4 °F /  25.2 °C 46.8 °F /  8.2 °C 30.4in /  1029.1hPa NNW 4mph /  6.4km/h 5mph /  8km/h 34% 0in /  0.0mm 585 W/m2
17:27 77.5 °F /  25.3 °C 46.9 °F /  8.3 °C 30.4in /  1029.1hPa Calm   4mph /  6.4km/h 34% 0in /  0.0mm 568 W/m2
17:32 77.7 °F /  25.4 °C 47.8 °F /  8.8 °C 30.4in /  1029.1hPa NE 0.9mph /  1.4km/h 4mph /  6.4km/h 35% 0in /  0.0mm 554 W/m2
17:37 78.1 °F /  25.6 °C 46.6 °F /  8.1 °C 30.4in /  1029.1hPa SE 2mph /  3.2km/h 7mph /  11.3km/h 33% 0in /  0.0mm 547 W/m2
17:42 77.7 °F /  25.4 °C 46.4 °F /  8 °C 30.4in /  1029.1hPa East 4mph /  6.4km/h 6mph /  9.7km/h 33% 0in /  0.0mm 533 W/m2
17:47 77.5 °F /  25.3 °C 46.9 °F /  8.3 °C 30.4in /  1029.1hPa West 2.9mph /  4.7km/h 5mph /  8km/h 34% 0in /  0.0mm 515 W/m2
17:52 77.5 °F /  25.3 °C 46.2 °F /  7.9 °C 30.4in /  1029.1hPa NNW 2mph /  3.2km/h 6mph /  9.7km/h 33% 0in /  0.0mm 504 W/m2
17:57 77.7 °F /  25.4 °C 47.1 °F /  8.4 °C 30.4in /  1029.1hPa NE 0.9mph /  1.4km/h 2mph /  3.2km/h 34% 0in /  0.0mm 489 W/m2
18:02 77.7 °F /  25.4 °C 45.5 °F /  7.5 °C 30.4in /  1029.1hPa ENE 0.9mph /  1.4km/h 5mph /  8km/h 32% 0in /  0.0mm 476 W/m2
18:07 77.7 °F /  25.4 °C 47.1 °F /  8.4 °C 30.4in /  1029.1hPa NNE 0.9mph /  1.4km/h 2mph /  3.2km/h 34% 0in /  0.0mm 464 W/m2
18:12 77.9 °F /  25.5 °C 46.4 °F /  8 °C 30.4in /  1029.1hPa WNW 2.9mph /  4.7km/h 3mph /  4.8km/h 33% 0in /  0.0mm 448 W/m2
18:17 77.5 °F /  25.3 °C 46.9 °F /  8.3 °C 30.4in /  1028.8hPa West 2mph /  3.2km/h 2mph /  3.2km/h 34% 0in /  0.0mm 429 W/m2
18:22 77.7 °F /  25.4 °C 47.1 °F /  8.4 °C 30.4in /  1028.8hPa NNW 0.9mph /  1.4km/h 2mph /  3.2km/h 34% 0in /  0.0mm 404 W/m2
18:27 78.1 °F /  25.6 °C 47.5 °F /  8.6 °C 30.4in /  1028.8hPa SE 0.9mph /  1.4km/h 3mph /  4.8km/h 34% 0in /  0.0mm 373 W/m2
18:32 78.1 °F /  25.6 °C 47.5 °F /  8.6 °C 30.4in /  1028.8hPa NNE 0.9mph /  1.4km/h 4mph /  6.4km/h 34% 0in /  0.0mm 339 W/m2
18:37 78.3 °F /  25.7 °C 47.7 °F /  8.7 °C 30.4in /  1028.8hPa NE 0.9mph /  1.4km/h 2mph /  3.2km/h 34% 0in /  0.0mm 318 W/m2
18:42 77.9 °F /  25.5 °C 48 °F /  8.9 °C 30.4in /  1028.8hPa NNW 2mph /  3.2km/h 3mph /  4.8km/h 35% 0in /  0.0mm 297 W/m2
18:47 77.7 °F /  25.4 °C 47.8 °F /  8.8 °C 30.4in /  1028.8hPa NNW 0.9mph /  1.4km/h 3mph /  4.8km/h 35% 0in /  0.0mm 274 W/m2
18:52 77.7 °F /  25.4 °C 47.8 °F /  8.8 °C 30.4in /  1028.5hPa West 2.9mph /  4.7km/h 5mph /  8km/h 35% 0in /  0.0mm 255 W/m2
18:57 77.2 °F /  25.1 °C 48.2 °F /  9 °C 30.4in /  1028.5hPa West 2mph /  3.2km/h 6mph /  9.7km/h 36% 0in /  0.0mm 234 W/m2
19:02 77 °F /  25 °C 48.7 °F /  9.3 °C 30.4in /  1028.5hPa WSW 0.9mph /  1.4km/h 2mph /  3.2km/h 37% 0in /  0.0mm 220 W/m2
19:07 77.2 °F /  25.1 °C 48.2 °F /  9 °C 30.4in /  1028.5hPa East 0.9mph /  1.4km/h 3mph /  4.8km/h 36% 0in /  0.0mm 236 W/m2
19:12 77.4 °F /  25.2 °C 48.4 °F /  9.1 °C 30.4in /  1028.5hPa ENE 2mph /  3.2km/h 4mph /  6.4km/h 36% 0in /  0.0mm 244 W/m2
19:17 77.4 °F /  25.2 °C 48.4 °F /  9.1 °C 30.4in /  1028.5hPa NNW 2mph /  3.2km/h 2mph /  3.2km/h 36% 0in /  0.0mm 248 W/m2
19:22 77.5 °F /  25.3 °C 48.6 °F /  9.2 °C 30.4in /  1028.5hPa Calm   4mph /  6.4km/h 36% 0in /  0.0mm 246 W/m2
19:27 77.7 °F /  25.4 °C 47.8 °F /  8.8 °C 30.4in /  1028.5hPa NE 0.9mph /  1.4km/h 4mph /  6.4km/h 35% 0in /  0.0mm 232 W/m2
19:32 77.5 °F /  25.3 °C 49.3 °F /  9.6 °C 30.4in /  1028.5hPa Calm   1mph /  1.6km/h 37% 0in /  0.0mm 214 W/m2
19:37 77.5 °F /  25.3 °C 52 °F /  11.1 °C 30.4in /  1028.5hPa SSE 0.9mph /  1.4km/h 3mph /  4.8km/h 41% 0in /  0.0mm 195 W/m2
19:42 77.5 °F /  25.3 °C 53.2 °F /  11.8 °C 30.4in /  1028.5hPa Calm     43% 0in /  0.0mm 160 W/m2
19:47 77.5 °F /  25.3 °C 54 °F /  12.2 °C 30.4in /  1028.1hPa SSE 0.9mph /  1.4km/h 2mph /  3.2km/h 44% 0in /  0.0mm 134 W/m2
19:53 76.8 °F /  24.9 °C 52.7 °F /  11.5 °C 30.4in /  1028.1hPa Calm   2mph /  3.2km/h 43% 0in /  0.0mm 125 W/m2
19:58 75.9 °F /  24.4 °C 51.8 °F /  11 °C 30.4in /  1028.1hPa Calm   1mph /  1.6km/h 43% 0in /  0.0mm 114 W/m2
20:03 75.4 °F /  24.1 °C 53.2 °F /  11.8 °C 30.4in /  1028.1hPa Calm   2mph /  3.2km/h 46% 0in /  0.0mm 102 W/m2
20:08 74.7 °F /  23.7 °C 52.5 °F /  11.4 °C 30.4in /  1028.1hPa Calm     46% 0in /  0.0mm 35 W/m2
20:13 74.1 °F /  23.4 °C 52.5 °F /  11.4 °C 30.4in /  1028.5hPa Calm     47% 0in /  0.0mm 39 W/m2
20:18 73.2 °F /  22.9 °C 52.3 °F /  11.3 °C 30.4in /  1028.1hPa Calm     48% 0in /  0.0mm 28 W/m2
20:23 72.7 °F /  22.6 °C 51.8 °F /  11 °C 30.4in /  1028.5hPa Calm     48% 0in /  0.0mm 25 W/m2
20:28 72 °F /  22.2 °C 52.3 °F /  11.3 °C 30.4in /  1028.1hPa Calm     50% 0in /  0.0mm 21 W/m2
20:33 71.2 °F /  21.8 °C 51.1 °F /  10.6 °C 30.4in /  1028.1hPa Calm     49% 0in /  0.0mm 25 W/m2
20:38 70.3 °F /  21.3 °C 50.9 °F /  10.5 °C 30.4in /  1028.1hPa Calm   1mph /  1.6km/h 50% 0in /  0.0mm 30 W/m2
20:43 69.6 °F /  20.9 °C 50.7 °F /  10.4 °C 30.4in /  1028.1hPa Calm     51% 0in /  0.0mm 28 W/m2
20:48 69.3 °F /  20.7 °C 50.4 °F /  10.2 °C 30.4in /  1028.1hPa Calm   1mph /  1.6km/h 51% 0in /  0.0mm 28 W/m2
20:53 69.1 °F /  20.6 °C 50.7 °F /  10.4 °C 30.4in /  1028.1hPa Calm     52% 0in /  0.0mm 23 W/m2
20:59 68.9 °F /  20.5 °C 50.5 °F /  10.3 °C 30.4in /  1028.1hPa Calm     52% 0in /  0.0mm 21 W/m2
21:04 68.7 °F /  20.4 °C 50.4 °F /  10.2 °C 30.4in /  1028.5hPa Calm   1mph /  1.6km/h 52% 0in /  0.0mm 19 W/m2
21:09 68.4 °F /  20.2 °C 50 °F /  10 °C 30.4in /  1028.5hPa Calm   1mph /  1.6km/h 52% 0in /  0.0mm 14 W/m2
21:14 68.2 °F /  20.1 °C 50.4 °F /  10.2 °C 30.4in /  1028.5hPa Calm     53% 0in /  0.0mm 11 W/m2
21:19 67.6 °F /  19.8 °C 49.8 °F /  9.9 °C 30.4in /  1028.5hPa Calm   1mph /  1.6km/h 53% 0in /  0.0mm 5 W/m2
21:24 67.3 °F /  19.6 °C 50 °F /  10 °C 30.4in /  1028.5hPa Calm   2mph /  3.2km/h 54% 0in /  0.0mm 0 W/m2
21:29 66.7 °F /  19.3 °C 49.6 °F /  9.8 °C 30.4in /  1028.5hPa Calm   1mph /  1.6km/h 54% 0in /  0.0mm 0 W/m2
21:34 66.4 °F /  19.1 °C 50.2 °F /  10.1 °C 30.4in /  1028.5hPa South 0.9mph /  1.4km/h 1mph /  1.6km/h 56% 0in /  0.0mm 0 W/m2
21:39 65.8 °F /  18.8 °C 49.6 °F /  9.8 °C 30.4in /  1028.5hPa Calm   1mph /  1.6km/h 56% 0in /  0.0mm 0 W/m2
21:44 65.3 °F /  18.5 °C 49.3 °F /  9.6 °C 30.4in /  1028.5hPa WSW 2.9mph /  4.7km/h 3mph /  4.8km/h 56% 0in /  0.0mm 0 W/m2
21:49 65.5 °F /  18.6 °C 48.9 °F /  9.4 °C 30.4in /  1028.5hPa WSW 0.9mph /  1.4km/h 4mph /  6.4km/h 55% 0in /  0.0mm 0 W/m2
21:54 66.2 °F /  19 °C 49.1 °F /  9.5 °C 30.4in /  1028.5hPa WNW 0.9mph /  1.4km/h 1mph /  1.6km/h 54% 0in /  0.0mm 0 W/m2
21:59 66.6 °F /  19.2 °C 49.8 °F /  9.9 °C 30.4in /  1028.5hPa West 2.9mph /  4.7km/h 3mph /  4.8km/h 55% 0in /  0.0mm 0 W/m2
22:04 66.6 °F /  19.2 °C 49.8 °F /  9.9 °C 30.4in /  1028.8hPa West 0.9mph /  1.4km/h 3mph /  4.8km/h 55% 0in /  0.0mm 0 W/m2
22:09 66.6 °F /  19.2 °C 50.4 °F /  10.2 °C 30.4in /  1028.8hPa WSW 2.9mph /  4.7km/h 4mph /  6.4km/h 56% 0in /  0.0mm 0 W/m2
22:14 66.6 °F /  19.2 °C 50.4 °F /  10.2 °C 30.4in /  1028.8hPa WSW 0.9mph /  1.4km/h 2mph /  3.2km/h 56% 0in /  0.0mm 0 W/m2
22:19 66.7 °F /  19.3 °C 50.5 °F /  10.3 °C 30.4in /  1028.8hPa WNW 2mph /  3.2km/h 3mph /  4.8km/h 56% 0in /  0.0mm 0 W/m2
22:24 66.7 °F /  19.3 °C 50.5 °F /  10.3 °C 30.4in /  1028.8hPa West 0.9mph /  1.4km/h 1mph /  1.6km/h 56% 0in /  0.0mm 0 W/m2
22:29 66.7 °F /  19.3 °C 51.1 °F /  10.6 °C 30.4in /  1028.8hPa WSW 2mph /  3.2km/h 3mph /  4.8km/h 57% 0in /  0.0mm 0 W/m2
22:34 66.6 °F /  19.2 °C 50.9 °F /  10.5 °C 30.4in /  1028.8hPa WNW 6mph /  9.7km/h 6mph /  9.7km/h 57% 0in /  0.0mm 0 W/m2
22:39 66.7 °F /  19.3 °C 50.5 °F /  10.3 °C 30.4in /  1028.8hPa WSW 0.9mph /  1.4km/h 7mph /  11.3km/h 56% 0in /  0.0mm 0 W/m2
22:44 67.1 °F /  19.5 °C 50.4 °F /  10.2 °C 30.4in /  1029.1hPa WNW 2mph /  3.2km/h 4mph /  6.4km/h 55% 0in /  0.0mm 0 W/m2
22:49 67.5 °F /  19.7 °C 50.2 °F /  10.1 °C 30.4in /  1029.1hPa NNW 4mph /  6.4km/h 9mph /  14.5km/h 54% 0in /  0.0mm 0 W/m2
22:54 67.8 °F /  19.9 °C 50.5 °F /  10.3 °C 30.4in /  1029.1hPa WNW 2.9mph /  4.7km/h 4mph /  6.4km/h 54% 0in /  0.0mm 0 W/m2
23:00 67.8 °F /  19.9 °C 50.5 °F /  10.3 °C 30.4in /  1029.1hPa WNW 2.9mph /  4.7km/h 6mph /  9.7km/h 54% 0in /  0.0mm 0 W/m2
23:05 67.8 °F /  19.9 °C 50.5 °F /  10.3 °C 30.4in /  1029.1hPa West 6mph /  9.7km/h 7mph /  11.3km/h 54% 0in /  0.0mm 0 W/m2
23:10 67.6 °F /  19.8 °C 50.4 °F /  10.2 °C 30.4in /  1029.1hPa West 2.9mph /  4.7km/h 6mph /  9.7km/h 54% 0in /  0.0mm 0 W/m2
23:15 67.5 °F /  19.7 °C 50.7 °F /  10.4 °C 30.4in /  1029.1hPa West 2mph /  3.2km/h 6mph /  9.7km/h 55% 0in /  0.0mm 0 W/m2
23:20 67.3 °F /  19.6 °C 50.5 °F /  10.3 °C 30.4in /  1029.1hPa WNW 9mph /  14.5km/h 9mph /  14.5km/h 55% 0in /  0.0mm 0 W/m2
23:25 67.1 °F /  19.5 °C 50.9 °F /  10.5 °C 30.4in /  1029.1hPa North 0.9mph /  1.4km/h 4mph /  6.4km/h 56% 0in /  0.0mm 0 W/m2
23:30 66.9 °F /  19.4 °C 50.7 °F /  10.4 °C 30.4in /  1029.1hPa West 2.9mph /  4.7km/h 8mph /  12.9km/h 56% 0in /  0.0mm 0 W/m2
23:35 66.7 °F /  19.3 °C 50.5 °F /  10.3 °C 30.4in /  1029.1hPa North 4.9mph /  7.9km/h 5mph /  8km/h 56% 0in /  0.0mm 0 W/m2
23:40 66.7 °F /  19.3 °C 50.5 °F /  10.3 °C 30.4in /  1029.1hPa SW 2.9mph /  4.7km/h 5mph /  8km/h 56% 0in /  0.0mm 0 W/m2
23:45 66.6 °F /  19.2 °C 50.9 °F /  10.5 °C 30.4in /  1029.1hPa WSW 2mph /  3.2km/h 8mph /  12.9km/h 57% 0in /  0.0mm 0 W/m2
23:50 66.4 °F /  19.1 °C 50.7 °F /  10.4 °C 30.4in /  1029.1hPa NW 4mph /  6.4km/h 9mph /  14.5km/h 57% 0in /  0.0mm 0 W/m2
23:55 66.2 °F /  19 °C 50.9 °F /  10.5 °C 30.4in /  1029.1hPa WNW 4mph /  6.4km/h 6mph /  9.7km/h 58% 0in /  0.0mm 0 W/m2
Juneau County Weather
Compliments of Weather Underground - 4 mb